Change the Weather History Date:

Wednesday, February 26, 2014

  Actual Average Record
Temperature  
Mean Temperature 26 °F -  
Max Temperature 33 °F 43 °F 59 °F (1997)
Min Temperature 17 °F 29 °F 15 °F (2005)
Degree Days  
Heating Degree Days 39    
Moisture  
Dew Point 9 °F    
Average Humidity 50    
Maximum Humidity 80    
Minimum Humidity 29    
Precipitation  
Precipitation 0.00 in - - ()
Sea Level Pressure  
Sea Level Pressure 29.89 in    
Wind  
Wind Speed 7 mph (West)    
Max Wind Speed 24 mph    
Max Gust Speed 30 mph    
Visibility 9 miles    
Events      
Averages and records for this station are not official NWS values.
T = Trace of Precipitation, MM = Missing Value Source: NWS Daily Summary

Daily Weather History Graph

Daily Weather History Graph

Search for Another Location

Airport or City:

Trip Planner

Search our weather history database for the weather conditions in past years. The results will help you decide how hot, cold, wet, or windy it might be!

Date:

Astronomy

Feb. 26, 2014 Rise Set
Actual Time 6:34 AM EST 5:44 PM EST
Civil Twilight 6:07 AM EST 6:12 PM EST
Nautical Twilight 5:35 AM EST 6:43 PM EST
Astronomical Twilight 5:04 AM EST 7:15 PM EST
Moon 4:18 AM EST (2/26) 2:56 PM EST (2/26)
Length of Visible Light 12h 05m
Length of Day
11h 10m
Waning Crescent, 10% of the Moon is Illuminated
Feb 26
Waning Crescent
Mar 1
New
Mar 8
First Quarter
Mar 16
Full
Mar 23
Last Quarter

Hourly Weather History & Observations

Time (EST) Temp. Windchill Dew Point Humidity Pressure Visibility Wind Dir Wind Speed Gust Speed Precip Events Conditions
12:15 AM 26.6 °F 21.2 °F 10.4 °F 51% 29.97 in 10.0 mi West 4.6 mph - N/A   Clear
12:35 AM 26.6 °F 22.6 °F 10.4 °F 51% 29.98 in 10.0 mi WSW 3.5 mph - N/A   Clear
12:55 AM 24.8 °F 17.9 °F 10.4 °F 54% 29.98 in 10.0 mi WSW 5.8 mph - N/A   Clear
1:15 AM 24.8 °F 19.1 °F 10.4 °F 54% 29.98 in 10.0 mi West 4.6 mph - N/A   Clear
1:35 AM 24.8 °F 19.1 °F 10.4 °F 54% 29.98 in 10.0 mi West 4.6 mph - N/A   Clear
1:55 AM 24.8 °F - 10.4 °F 54% 29.97 in 10.0 mi Calm Calm - N/A   Clear
2:15 AM 24.8 °F 20.5 °F 10.4 °F 54% 29.96 in 10.0 mi WNW 3.5 mph - N/A   Scattered Clouds
2:35 AM 24.8 °F 20.5 °F 10.4 °F 54% 29.95 in 10.0 mi WNW 3.5 mph - N/A   Scattered Clouds
2:55 AM 24.8 °F - 10.4 °F 54% 29.95 in 10.0 mi Calm Calm - N/A   Mostly Cloudy
3:15 AM 24.8 °F - 10.4 °F 54% 29.95 in 10.0 mi Calm Calm - N/A   Mostly Cloudy
3:35 AM 24.8 °F 20.5 °F 12.2 °F 59% 29.94 in 10.0 mi SSW 3.5 mph - N/A   Overcast
3:55 AM 24.8 °F 17.9 °F 12.2 °F 59% 29.94 in 10.0 mi South 5.8 mph - N/A   Overcast
4:15 AM 24.8 °F 19.1 °F 12.2 °F 59% 29.93 in 10.0 mi SSW 4.6 mph - N/A   Overcast
4:35 AM 24.8 °F 20.5 °F 12.2 °F 59% 29.92 in 10.0 mi South 3.5 mph - N/A   Overcast
4:55 AM 24.8 °F - 12.2 °F 59% 29.92 in 10.0 mi Calm Calm - N/A   Overcast
5:15 AM 24.8 °F 20.5 °F 12.2 °F 59% 29.91 in 10.0 mi SSW 3.5 mph - N/A   Overcast
5:35 AM 24.8 °F - 12.2 °F 59% 29.91 in 10.0 mi Calm Calm - N/A   Overcast
5:55 AM 24.8 °F - 10.4 °F 54% 29.92 in 10.0 mi Calm Calm - N/A   Overcast
6:15 AM 24.8 °F - 12.2 °F 59% 29.92 in 10.0 mi Calm Calm - N/A   Overcast
6:35 AM 26.6 °F 22.6 °F 12.2 °F 55% 29.91 in 10.0 mi South 3.5 mph - N/A   Overcast
6:55 AM 26.6 °F 21.2 °F 12.2 °F 55% 29.91 in 10.0 mi SW 4.6 mph - N/A   Overcast
7:15 AM 26.6 °F - 12.2 °F 55% 29.91 in 10.0 mi Calm Calm - N/A   Overcast
7:35 AM 26.6 °F 21.2 °F 12.2 °F 55% 29.91 in 10.0 mi SW 4.6 mph - N/A   Overcast
7:55 AM 26.6 °F 18.2 °F 12.2 °F 55% 29.92 in 10.0 mi WSW 8.1 mph - N/A   Overcast
8:15 AM 26.6 °F 19.1 °F 14.0 °F 59% 29.92 in 10.0 mi WSW 6.9 mph - N/A   Overcast
8:35 AM 26.6 °F 20.0 °F 14.0 °F 59% 29.92 in 10.0 mi WSW 5.8 mph - N/A   Overcast
8:55 AM 28.4 °F 20.4 °F 14.0 °F 55% 29.92 in 10.0 mi WSW 8.1 mph - N/A   Overcast
9:15 AM 28.4 °F 18.5 °F 15.8 °F 59% 29.93 in 10.0 mi SW 11.5 mph 16.1 mph N/A   Overcast
9:35 AM 26.6 °F 19.1 °F 17.6 °F 69% 29.93 in 3.0 mi SW 6.9 mph - N/A   Overcast
9:55 AM 26.6 °F 18.2 °F 19.4 °F 74% 29.93 in 2.0 mi SW 8.1 mph - N/A   Overcast
10:15 AM 26.6 °F 18.2 °F 19.4 °F 74% 29.94 in 2.5 mi WSW 8.1 mph - N/A   Overcast
10:35 AM 26.6 °F 18.2 °F 21.2 °F 80% 29.92 in 2.5 mi SW 8.1 mph - N/A   Mostly Cloudy
10:55 AM 28.4 °F 19.7 °F 21.2 °F 74% 29.91 in 1.0 mi SW 9.2 mph - N/A   Overcast
11:15 AM 28.4 °F 19.1 °F 21.2 °F 74% 29.91 in 2.0 mi SW 10.4 mph - N/A   Overcast
11:35 AM 28.4 °F 16.6 °F 21.2 °F 74% 29.89 in 7.0 mi WSW 16.1 mph - N/A   Mostly Cloudy
11:55 AM 30.2 °F 19.3 °F 21.2 °F 69% 29.88 in 10.0 mi West 15.0 mph 19.6 mph N/A   Overcast
12:15 PM 28.4 °F 16.2 °F 19.4 °F 69% 29.88 in 1.2 mi WNW 17.3 mph 25.3 mph N/A   Overcast
12:35 PM 28.4 °F 18.5 °F 19.4 °F 69% 29.87 in 4.0 mi WNW 11.5 mph 18.4 mph N/A   Overcast
12:55 PM 30.2 °F 18.5 °F 19.4 °F 64% 29.86 in 10.0 mi WNW 17.3 mph 24.2 mph N/A   Overcast
1:15 PM 32.0 °F 20.5 °F 17.6 °F 55% 29.84 in 10.0 mi WNW 18.4 mph 28.8 mph N/A   Scattered Clouds
1:35 PM 30.2 °F 18.9 °F 15.8 °F 55% 29.84 in 10.0 mi WNW 16.1 mph 23.0 mph N/A   Mostly Cloudy
1:55 PM 33.8 °F 24.3 °F 14.0 °F 44% 29.83 in 10.0 mi WNW 13.8 mph - N/A   Mostly Cloudy
2:15 PM 33.8 °F 23.5 °F 12.2 °F 41% 29.83 in 10.0 mi West 16.1 mph 28.8 mph N/A   Mostly Cloudy
2:35 PM 32.0 °F 21.2 °F 6.8 °F 35% 29.82 in 10.0 mi WNW 16.1 mph 29.9 mph N/A   Scattered Clouds
2:55 PM 32.0 °F 18.9 °F 6.8 °F 35% 29.82 in 10.0 mi NW 24.2 mph 29.9 mph N/A   Partly Cloudy
3:15 PM 32.0 °F 21.6 °F 6.8 °F 35% 29.83 in 10.0 mi WNW 15.0 mph 23.0 mph N/A   Partly Cloudy
3:35 PM 30.2 °F 17.8 °F 5.0 °F 34% 29.83 in 10.0 mi WNW 19.6 mph 29.9 mph N/A   Clear
3:55 PM 30.2 °F 18.5 °F 6.8 °F 37% 29.82 in 10.0 mi NW 17.3 mph 23.0 mph N/A   Partly Cloudy
4:15 PM 30.2 °F 19.3 °F 5.0 °F 34% 29.82 in 10.0 mi West 15.0 mph 24.2 mph N/A   Clear
4:35 PM 30.2 °F 18.9 °F 3.2 °F 32% 29.82 in 10.0 mi NW 16.1 mph 23.0 mph N/A   Clear
4:55 PM 28.4 °F 16.2 °F 1.4 °F 31% 29.82 in 10.0 mi NW 17.3 mph 21.9 mph N/A   Clear
5:15 PM 28.4 °F 17.0 °F -0.4 °F 29% 29.83 in 10.0 mi WNW 15.0 mph 23.0 mph N/A   Clear
5:35 PM 26.6 °F 15.7 °F -0.4 °F 31% 29.83 in 10.0 mi NW 12.7 mph - N/A   Clear
5:55 PM 26.6 °F 14.7 °F 1.4 °F 34% 29.83 in 10.0 mi WNW 15.0 mph - N/A   Clear
6:15 PM 26.6 °F 16.2 °F -0.4 °F 31% 29.84 in 10.0 mi WNW 11.5 mph - N/A   Clear
6:35 PM 24.8 °F 15.3 °F -0.4 °F 34% 29.84 in 10.0 mi WNW 9.2 mph - N/A   Clear
6:55 PM 24.8 °F 16.1 °F -0.4 °F 34% 29.85 in 10.0 mi WNW 8.1 mph - N/A   Clear
7:15 PM 24.8 °F 16.1 °F -0.4 °F 34% 29.85 in 10.0 mi WNW 8.1 mph - N/A   Clear
7:35 PM 24.8 °F 17.9 °F -0.4 °F 34% 29.86 in 10.0 mi WNW 5.8 mph - N/A   Clear
7:55 PM 24.8 °F 16.1 °F -0.4 °F 34% 29.86 in 10.0 mi WNW 8.1 mph - N/A   Clear
8:15 PM 24.8 °F 16.9 °F -2.2 °F 31% 29.86 in 10.0 mi WNW 6.9 mph - N/A   Clear
8:35 PM 23.0 °F 18.4 °F -2.2 °F 33% 29.87 in 10.0 mi West 3.5 mph - N/A   Clear
8:55 PM 23.0 °F 15.8 °F -2.2 °F 33% 29.87 in 10.0 mi WNW 5.8 mph - N/A   Clear
9:15 PM 21.2 °F 14.9 °F -2.2 °F 36% 29.88 in 10.0 mi West 4.6 mph - N/A   Clear
9:35 PM 21.2 °F 13.6 °F -2.2 °F 36% 29.88 in 10.0 mi WNW 5.8 mph - N/A   Clear
9:55 PM 21.2 °F 12.6 °F -2.2 °F 36% 29.88 in 10.0 mi WNW 6.9 mph - N/A   Clear
10:15 PM 21.2 °F 14.9 °F -2.2 °F 36% 29.88 in 10.0 mi WNW 4.6 mph - N/A   Clear
10:35 PM 19.4 °F 12.8 °F -2.2 °F 39% 29.88 in 10.0 mi WNW 4.6 mph - N/A   Clear
10:55 PM 19.4 °F 14.3 °F -2.2 °F 39% 29.88 in 10.0 mi WNW 3.5 mph - N/A   Clear
11:15 PM 19.4 °F 14.3 °F -0.4 °F 42% 29.88 in 10.0 mi WNW 3.5 mph - N/A   Clear
11:35 PM 19.4 °F 14.3 °F -0.4 °F 42% 29.88 in 10.0 mi NW 3.5 mph - N/A   Clear
11:55 PM 17.6 °F 12.3 °F -2.2 °F 42% 29.88 in 10.0 mi WNW 3.5 mph - N/A   Clear